sensor_id;sensor_type;location;lat;lon;timestamp;P1;durP1;ratioP1;P2;durP2;ratioP2
52322;SDS011;38263;52.920;6.238;2022-12-11T00:02:27;83.55;;;22.80;;
52322;SDS011;38263;52.920;6.238;2022-12-11T00:04:53;91.28;;;24.70;;
52322;SDS011;38263;52.920;6.238;2022-12-11T00:07:19;93.85;;;24.42;;
52322;SDS011;38263;52.920;6.238;2022-12-11T00:09:45;98.85;;;25.88;;
52322;SDS011;38263;52.920;6.238;2022-12-11T00:12:11;89.30;;;25.13;;
52322;SDS011;38263;52.920;6.238;2022-12-11T00:14:37;98.30;;;24.58;;
52322;SDS011;38263;52.920;6.238;2022-12-11T00:17:02;105.97;;;25.30;;
52322;SDS011;38263;52.920;6.238;2022-12-11T00:19:28;90.72;;;25.92;;
52322;SDS011;38263;52.920;6.238;2022-12-11T00:21:54;92.55;;;23.38;;
52322;SDS011;38263;52.920;6.238;2022-12-11T00:24:21;101.97;;;26.58;;
52322;SDS011;38263;52.920;6.238;2022-12-11T00:26:47;89.70;;;24.35;;
52322;SDS011;38263;52.920;6.238;2022-12-11T00:29:13;102.95;;;26.02;;
52322;SDS011;38263;52.920;6.238;2022-12-11T00:31:40;103.15;;;26.95;;
52322;SDS011;38263;52.920;6.238;2022-12-11T00:34:06;87.82;;;26.63;;
52322;SDS011;38263;52.920;6.238;2022-12-11T00:36:32;92.95;;;25.67;;
52322;SDS011;38263;52.920;6.238;2022-12-11T00:38:58;95.53;;;25.63;;
52322;SDS011;38263;52.920;6.238;2022-12-11T00:41:26;112.00;;;26.30;;
52322;SDS011;38263;52.920;6.238;2022-12-11T00:43:52;96.82;;;24.63;;
52322;SDS011;38263;52.920;6.238;2022-12-11T00:46:18;102.38;;;26.10;;
52322;SDS011;38263;52.920;6.238;2022-12-11T00:48:43;97.53;;;26.10;;
52322;SDS011;38263;52.920;6.238;2022-12-11T00:51:10;109.57;;;24.73;;
52322;SDS011;38263;52.920;6.238;2022-12-11T00:53:36;99.65;;;26.38;;
52322;SDS011;38263;52.920;6.238;2022-12-11T00:56:13;87.80;;;24.73;;
52322;SDS011;38263;52.920;6.238;2022-12-11T00:58:40;96.55;;;24.30;;
52322;SDS011;38263;52.920;6.238;2022-12-11T01:01:07;94.20;;;23.50;;
52322;SDS011;38263;52.920;6.238;2022-12-11T01:03:35;93.20;;;25.48;;
52322;SDS011;38263;52.920;6.238;2022-12-11T01:06:01;95.90;;;25.13;;
52322;SDS011;38263;52.920;6.238;2022-12-11T01:08:27;108.18;;;26.25;;
52322;SDS011;38263;52.920;6.238;2022-12-11T01:11:00;95.22;;;23.67;;
52322;SDS011;38263;52.920;6.238;2022-12-11T01:13:26;89.00;;;23.55;;
52322;SDS011;38263;52.920;6.238;2022-12-11T01:15:52;92.53;;;23.80;;
52322;SDS011;38263;52.920;6.238;2022-12-11T01:18:18;90.70;;;23.98;;
52322;SDS011;38263;52.920;6.238;2022-12-11T01:20:44;93.50;;;24.30;;
52322;SDS011;38263;52.920;6.238;2022-12-11T01:23:10;95.43;;;22.45;;
52322;SDS011;38263;52.920;6.238;2022-12-11T01:25:37;77.97;;;21.35;;
52322;SDS011;38263;52.920;6.238;2022-12-11T01:28:04;91.38;;;20.92;;
52322;SDS011;38263;52.920;6.238;2022-12-11T01:30:30;77.38;;;20.95;;
52322;SDS011;38263;52.920;6.238;2022-12-11T01:32:56;75.88;;;21.05;;
52322;SDS011;38263;52.920;6.238;2022-12-11T01:35:22;79.05;;;19.77;;
52322;SDS011;38263;52.920;6.238;2022-12-11T01:37:48;88.75;;;20.38;;
52322;SDS011;38263;52.920;6.238;2022-12-11T01:40:15;75.25;;;21.55;;
52322;SDS011;38263;52.920;6.238;2022-12-11T01:42:42;78.18;;;19.13;;
52322;SDS011;38263;52.920;6.238;2022-12-11T01:45:15;82.75;;;19.00;;
52322;SDS011;38263;52.920;6.238;2022-12-11T01:48:05;71.13;;;18.58;;
52322;SDS011;38263;52.920;6.238;2022-12-11T01:50:48;81.35;;;20.05;;
52322;SDS011;38263;52.920;6.238;2022-12-11T01:53:24;83.68;;;20.15;;
52322;SDS011;38263;52.920;6.238;2022-12-11T01:55:54;74.47;;;20.35;;
52322;SDS011;38263;52.920;6.238;2022-12-11T01:58:21;76.85;;;19.15;;
52322;SDS011;38263;52.920;6.238;2022-12-11T02:00:51;76.93;;;19.45;;
52322;SDS011;38263;52.920;6.238;2022-12-11T02:03:17;81.18;;;21.38;;
52322;SDS011;38263;52.920;6.238;2022-12-11T02:05:43;75.88;;;19.85;;
52322;SDS011;38263;52.920;6.238;2022-12-11T02:08:09;78.20;;;20.80;;
52322;SDS011;38263;52.920;6.238;2022-12-11T02:13:33;66.30;;;20.27;;
52322;SDS011;38263;52.920;6.238;2022-12-11T02:16:10;80.47;;;19.92;;
52322;SDS011;38263;52.920;6.238;2022-12-11T02:18:47;84.28;;;20.83;;
52322;SDS011;38263;52.920;6.238;2022-12-11T02:21:27;89.57;;;23.10;;
52322;SDS011;38263;52.920;6.238;2022-12-11T02:24:12;88.10;;;22.27;;
52322;SDS011;38263;52.920;6.238;2022-12-11T02:26:48;87.70;;;21.55;;
52322;SDS011;38263;52.920;6.238;2022-12-11T02:29:24;81.40;;;21.15;;
52322;SDS011;38263;52.920;6.238;2022-12-11T02:32:03;81.15;;;19.95;;
52322;SDS011;38263;52.920;6.238;2022-12-11T02:34:48;83.30;;;20.10;;
52322;SDS011;38263;52.920;6.238;2022-12-11T02:37:23;85.28;;;21.45;;
52322;SDS011;38263;52.920;6.238;2022-12-11T02:39:53;79.25;;;20.20;;
52322;SDS011;38263;52.920;6.238;2022-12-11T02:42:21;94.03;;;24.25;;
52322;SDS011;38263;52.920;6.238;2022-12-11T02:44:52;93.72;;;25.38;;
52322;SDS011;38263;52.920;6.238;2022-12-11T02:47:20;93.80;;;23.38;;
52322;SDS011;38263;52.920;6.238;2022-12-11T02:49:48;93.43;;;23.17;;
52322;SDS011;38263;52.920;6.238;2022-12-11T02:52:16;80.20;;;22.42;;
52322;SDS011;38263;52.920;6.238;2022-12-11T02:54:46;82.57;;;22.65;;
52322;SDS011;38263;52.920;6.238;2022-12-11T02:57:16;98.63;;;23.95;;
52322;SDS011;38263;52.920;6.238;2022-12-11T02:59:47;99.70;;;23.95;;
52322;SDS011;38263;52.920;6.238;2022-12-11T03:02:13;93.10;;;22.33;;
52322;SDS011;38263;52.920;6.238;2022-12-11T03:04:41;87.35;;;21.90;;
52322;SDS011;38263;52.920;6.238;2022-12-11T03:07:12;93.35;;;23.48;;
52322;SDS011;38263;52.920;6.238;2022-12-11T03:09:44;76.40;;;22.17;;
52322;SDS011;38263;52.920;6.238;2022-12-11T03:12:12;90.82;;;22.52;;
52322;SDS011;38263;52.920;6.238;2022-12-11T03:14:41;84.72;;;24.13;;
52322;SDS011;38263;52.920;6.238;2022-12-11T03:17:12;88.40;;;22.10;;
52322;SDS011;38263;52.920;6.238;2022-12-11T03:19:46;92.75;;;23.33;;
52322;SDS011;38263;52.920;6.238;2022-12-11T03:22:20;88.60;;;23.30;;
52322;SDS011;38263;52.920;6.238;2022-12-11T03:24:58;86.63;;;25.33;;
52322;SDS011;38263;52.920;6.238;2022-12-11T03:27:35;89.72;;;23.55;;
52322;SDS011;38263;52.920;6.238;2022-12-11T03:30:07;84.88;;;24.40;;
52322;SDS011;38263;52.920;6.238;2022-12-11T03:32:41;84.70;;;24.25;;
52322;SDS011;38263;52.920;6.238;2022-12-11T03:35:18;93.85;;;23.83;;
52322;SDS011;38263;52.920;6.238;2022-12-11T03:38:27;91.40;;;22.15;;
52322;SDS011;38263;52.920;6.238;2022-12-11T03:40:55;94.65;;;24.83;;
52322;SDS011;38263;52.920;6.238;2022-12-11T03:43:24;85.55;;;23.42;;
52322;SDS011;38263;52.920;6.238;2022-12-11T03:45:51;84.85;;;24.67;;
52322;SDS011;38263;52.920;6.238;2022-12-11T03:48:18;91.25;;;25.60;;
52322;SDS011;38263;52.920;6.238;2022-12-11T03:50:45;87.03;;;24.23;;
52322;SDS011;38263;52.920;6.238;2022-12-11T03:53:12;96.80;;;24.23;;
52322;SDS011;38263;52.920;6.238;2022-12-11T03:55:38;81.40;;;22.70;;
52322;SDS011;38263;52.920;6.238;2022-12-11T03:58:05;97.57;;;24.55;;
52322;SDS011;38263;52.920;6.238;2022-12-11T04:00:31;97.30;;;24.45;;
52322;SDS011;38263;52.920;6.238;2022-12-11T04:02:57;93.50;;;23.40;;
52322;SDS011;38263;52.920;6.238;2022-12-11T04:05:44;82.60;;;23.38;;
52322;SDS011;38263;52.920;6.238;2022-12-11T04:08:12;89.47;;;23.55;;
52322;SDS011;38263;52.920;6.238;2022-12-11T04:10:38;83.05;;;23.55;;
52322;SDS011;38263;52.920;6.238;2022-12-11T04:13:04;85.30;;;23.75;;
52322;SDS011;38263;52.920;6.238;2022-12-11T04:15:30;95.15;;;24.77;;
52322;SDS011;38263;52.920;6.238;2022-12-11T04:17:56;88.85;;;24.48;;
52322;SDS011;38263;52.920;6.238;2022-12-11T04:20:40;90.68;;;23.45;;
52322;SDS011;38263;52.920;6.238;2022-12-11T04:23:25;100.20;;;25.63;;
52322;SDS011;38263;52.920;6.238;2022-12-11T04:26:14;93.57;;;23.25;;
52322;SDS011;38263;52.920;6.238;2022-12-11T04:28:41;88.70;;;23.33;;
52322;SDS011;38263;52.920;6.238;2022-12-11T04:31:11;103.00;;;24.83;;
52322;SDS011;38263;52.920;6.238;2022-12-11T04:33:38;92.45;;;24.42;;
52322;SDS011;38263;52.920;6.238;2022-12-11T04:36:04;80.43;;;23.95;;
52322;SDS011;38263;52.920;6.238;2022-12-11T04:38:30;87.15;;;22.90;;
52322;SDS011;38263;52.920;6.238;2022-12-11T04:41:07;87.38;;;24.67;;
52322;SDS011;38263;52.920;6.238;2022-12-11T04:43:35;92.07;;;23.33;;
52322;SDS011;38263;52.920;6.238;2022-12-11T04:46:20;90.28;;;24.75;;
52322;SDS011;38263;52.920;6.238;2022-12-11T04:48:48;92.18;;;22.92;;
52322;SDS011;38263;52.920;6.238;2022-12-11T04:51:14;86.97;;;23.95;;
52322;SDS011;38263;52.920;6.238;2022-12-11T04:53:40;95.97;;;24.95;;
52322;SDS011;38263;52.920;6.238;2022-12-11T04:56:07;84.10;;;23.73;;
52322;SDS011;38263;52.920;6.238;2022-12-11T04:58:35;87.88;;;22.05;;
52322;SDS011;38263;52.920;6.238;2022-12-11T05:01:08;86.82;;;21.92;;
52322;SDS011;38263;52.920;6.238;2022-12-11T05:03:38;78.07;;;21.23;;
52322;SDS011;38263;52.920;6.238;2022-12-11T05:06:04;81.03;;;22.17;;
52322;SDS011;38263;52.920;6.238;2022-12-11T05:08:30;73.50;;;21.45;;
52322;SDS011;38263;52.920;6.238;2022-12-11T05:10:58;88.57;;;21.95;;
52322;SDS011;38263;52.920;6.238;2022-12-11T05:13:25;84.85;;;21.67;;
52322;SDS011;38263;52.920;6.238;2022-12-11T05:15:51;81.55;;;22.48;;
52322;SDS011;38263;52.920;6.238;2022-12-11T05:18:18;82.35;;;21.45;;
52322;SDS011;38263;52.920;6.238;2022-12-11T05:20:44;81.35;;;23.60;;
52322;SDS011;38263;52.920;6.238;2022-12-11T05:23:10;80.53;;;20.95;;
52322;SDS011;38263;52.920;6.238;2022-12-11T05:25:36;82.43;;;21.10;;
52322;SDS011;38263;52.920;6.238;2022-12-11T05:28:02;87.45;;;21.17;;
52322;SDS011;38263;52.920;6.238;2022-12-11T05:30:28;81.55;;;23.08;;
52322;SDS011;38263;52.920;6.238;2022-12-11T05:32:54;79.63;;;22.92;;
52322;SDS011;38263;52.920;6.238;2022-12-11T05:35:19;70.03;;;20.25;;
52322;SDS011;38263;52.920;6.238;2022-12-11T05:37:46;72.90;;;19.80;;
52322;SDS011;38263;52.920;6.238;2022-12-11T05:40:12;80.53;;;22.17;;
52322;SDS011;38263;52.920;6.238;2022-12-11T05:42:38;86.78;;;22.60;;
52322;SDS011;38263;52.920;6.238;2022-12-11T05:45:04;91.40;;;23.10;;
52322;SDS011;38263;52.920;6.238;2022-12-11T05:47:31;75.55;;;20.58;;
52322;SDS011;38263;52.920;6.238;2022-12-11T05:49:57;81.85;;;20.67;;
52322;SDS011;38263;52.920;6.238;2022-12-11T05:52:23;92.88;;;21.88;;
52322;SDS011;38263;52.920;6.238;2022-12-11T05:54:48;85.95;;;21.30;;
52322;SDS011;38263;52.920;6.238;2022-12-11T05:57:14;89.70;;;22.48;;
52322;SDS011;38263;52.920;6.238;2022-12-11T05:59:40;82.60;;;22.13;;
52322;SDS011;38263;52.920;6.238;2022-12-11T06:02:06;84.85;;;22.08;;
52322;SDS011;38263;52.920;6.238;2022-12-11T06:04:32;88.93;;;23.67;;
52322;SDS011;38263;52.920;6.238;2022-12-11T06:06:58;90.35;;;23.42;;
52322;SDS011;38263;52.920;6.238;2022-12-11T06:09:24;97.25;;;23.30;;
52322;SDS011;38263;52.920;6.238;2022-12-11T06:11:50;82.10;;;23.23;;
52322;SDS011;38263;52.920;6.238;2022-12-11T06:14:15;86.35;;;22.25;;
52322;SDS011;38263;52.920;6.238;2022-12-11T06:16:41;90.18;;;24.25;;
52322;SDS011;38263;52.920;6.238;2022-12-11T06:19:11;96.28;;;23.10;;
52322;SDS011;38263;52.920;6.238;2022-12-11T06:21:38;103.95;;;22.17;;
52322;SDS011;38263;52.920;6.238;2022-12-11T06:24:05;77.13;;;21.90;;
52322;SDS011;38263;52.920;6.238;2022-12-11T06:26:30;96.68;;;23.83;;
52322;SDS011;38263;52.920;6.238;2022-12-11T06:28:57;91.10;;;24.67;;
52322;SDS011;38263;52.920;6.238;2022-12-11T06:31:22;92.75;;;24.83;;
52322;SDS011;38263;52.920;6.238;2022-12-11T06:33:48;101.65;;;24.65;;
52322;SDS011;38263;52.920;6.238;2022-12-11T06:36:15;99.55;;;24.65;;
52322;SDS011;38263;52.920;6.238;2022-12-11T06:38:42;85.97;;;22.75;;
52322;SDS011;38263;52.920;6.238;2022-12-11T06:41:09;88.43;;;21.50;;
52322;SDS011;38263;52.920;6.238;2022-12-11T06:43:36;98.03;;;24.58;;
52322;SDS011;38263;52.920;6.238;2022-12-11T06:46:05;87.78;;;22.30;;
52322;SDS011;38263;52.920;6.238;2022-12-11T06:48:33;102.97;;;23.80;;
52322;SDS011;38263;52.920;6.238;2022-12-11T06:51:03;74.10;;;20.55;;
52322;SDS011;38263;52.920;6.238;2022-12-11T06:53:30;90.75;;;24.13;;
52322;SDS011;38263;52.920;6.238;2022-12-11T06:56:00;84.93;;;23.92;;
52322;SDS011;38263;52.920;6.238;2022-12-11T06:58:29;96.68;;;23.88;;
52322;SDS011;38263;52.920;6.238;2022-12-11T07:00:56;88.03;;;24.35;;
52322;SDS011;38263;52.920;6.238;2022-12-11T07:03:21;84.75;;;22.65;;
52322;SDS011;38263;52.920;6.238;2022-12-11T07:05:47;91.35;;;24.45;;
52322;SDS011;38263;52.920;6.238;2022-12-11T07:08:13;80.53;;;24.15;;
52322;SDS011;38263;52.920;6.238;2022-12-11T07:10:39;93.40;;;23.92;;
52322;SDS011;38263;52.920;6.238;2022-12-11T07:13:05;84.03;;;22.08;;
52322;SDS011;38263;52.920;6.238;2022-12-11T07:15:31;86.55;;;24.83;;
52322;SDS011;38263;52.920;6.238;2022-12-11T07:17:57;88.60;;;22.65;;
52322;SDS011;38263;52.920;6.238;2022-12-11T07:20:23;81.25;;;19.42;;
52322;SDS011;38263;52.920;6.238;2022-12-11T07:22:49;88.75;;;24.40;;
52322;SDS011;38263;52.920;6.238;2022-12-11T07:25:15;79.38;;;19.95;;
52322;SDS011;38263;52.920;6.238;2022-12-11T07:27:41;95.25;;;23.80;;
52322;SDS011;38263;52.920;6.238;2022-12-11T07:30:08;78.22;;;21.60;;
52322;SDS011;38263;52.920;6.238;2022-12-11T07:32:34;91.57;;;23.35;;
52322;SDS011;38263;52.920;6.238;2022-12-11T07:35:00;81.13;;;21.73;;
52322;SDS011;38263;52.920;6.238;2022-12-11T07:37:26;82.60;;;22.13;;
52322;SDS011;38263;52.920;6.238;2022-12-11T07:39:52;87.70;;;22.70;;
52322;SDS011;38263;52.920;6.238;2022-12-11T07:42:18;95.07;;;24.63;;
52322;SDS011;38263;52.920;6.238;2022-12-11T07:44:44;93.47;;;24.58;;
52322;SDS011;38263;52.920;6.238;2022-12-11T07:47:10;88.07;;;23.15;;
52322;SDS011;38263;52.920;6.238;2022-12-11T07:49:36;83.57;;;23.25;;
52322;SDS011;38263;52.920;6.238;2022-12-11T07:52:02;99.28;;;25.52;;
52322;SDS011;38263;52.920;6.238;2022-12-11T07:54:28;89.07;;;23.15;;
52322;SDS011;38263;52.920;6.238;2022-12-11T07:56:54;99.57;;;24.73;;
52322;SDS011;38263;52.920;6.238;2022-12-11T07:59:20;83.82;;;23.48;;
52322;SDS011;38263;52.920;6.238;2022-12-11T08:01:46;89.78;;;25.60;;
52322;SDS011;38263;52.920;6.238;2022-12-11T08:04:12;90.28;;;23.85;;
52322;SDS011;38263;52.920;6.238;2022-12-11T08:06:39;101.85;;;23.55;;
52322;SDS011;38263;52.920;6.238;2022-12-11T08:09:07;99.57;;;25.58;;
52322;SDS011;38263;52.920;6.238;2022-12-11T08:11:34;93.97;;;24.63;;
52322;SDS011;38263;52.920;6.238;2022-12-11T08:14:00;90.20;;;25.95;;
52322;SDS011;38263;52.920;6.238;2022-12-11T08:16:26;95.47;;;24.42;;
52322;SDS011;38263;52.920;6.238;2022-12-11T08:18:52;92.90;;;23.95;;
52322;SDS011;38263;52.920;6.238;2022-12-11T08:21:20;96.47;;;23.95;;
52322;SDS011;38263;52.920;6.238;2022-12-11T08:23:47;87.75;;;23.88;;
52322;SDS011;38263;52.920;6.238;2022-12-11T08:26:18;76.35;;;22.10;;
52322;SDS011;38263;52.920;6.238;2022-12-11T08:28:45;95.97;;;23.75;;
52322;SDS011;38263;52.920;6.238;2022-12-11T08:31:12;90.47;;;23.95;;
52322;SDS011;38263;52.920;6.238;2022-12-11T08:33:38;87.05;;;23.95;;
52322;SDS011;38263;52.920;6.238;2022-12-11T08:36:06;93.03;;;24.80;;
52322;SDS011;38263;52.920;6.238;2022-12-11T08:38:34;96.32;;;24.80;;
52322;SDS011;38263;52.920;6.238;2022-12-11T08:41:07;92.70;;;26.55;;
52322;SDS011;38263;52.920;6.238;2022-12-11T08:43:37;78.22;;;23.38;;
52322;SDS011;38263;52.920;6.238;2022-12-11T08:46:03;96.80;;;25.48;;
52322;SDS011;38263;52.920;6.238;2022-12-11T08:48:29;90.75;;;22.98;;
52322;SDS011;38263;52.920;6.238;2022-12-11T08:50:58;93.18;;;24.52;;
52322;SDS011;38263;52.920;6.238;2022-12-11T08:53:25;82.25;;;22.38;;
52322;SDS011;38263;52.920;6.238;2022-12-11T08:55:51;84.78;;;23.83;;
52322;SDS011;38263;52.920;6.238;2022-12-11T08:58:17;86.53;;;23.85;;
52322;SDS011;38263;52.920;6.238;2022-12-11T09:00:43;79.35;;;24.30;;
52322;SDS011;38263;52.920;6.238;2022-12-11T09:03:09;89.05;;;23.33;;
52322;SDS011;38263;52.920;6.238;2022-12-11T09:05:36;90.32;;;24.83;;
52322;SDS011;38263;52.920;6.238;2022-12-11T09:08:02;80.82;;;24.08;;
52322;SDS011;38263;52.920;6.238;2022-12-11T09:10:28;83.60;;;23.45;;
52322;SDS011;38263;52.920;6.238;2022-12-11T09:12:54;85.38;;;24.17;;
52322;SDS011;38263;52.920;6.238;2022-12-11T09:15:20;87.30;;;24.35;;
52322;SDS011;38263;52.920;6.238;2022-12-11T09:17:46;82.80;;;22.67;;
52322;SDS011;38263;52.920;6.238;2022-12-11T09:20:12;92.97;;;25.45;;
52322;SDS011;38263;52.920;6.238;2022-12-11T09:22:38;88.18;;;23.58;;
52322;SDS011;38263;52.920;6.238;2022-12-11T09:25:04;76.45;;;21.88;;
52322;SDS011;38263;52.920;6.238;2022-12-11T09:27:30;96.57;;;25.73;;
52322;SDS011;38263;52.920;6.238;2022-12-11T09:29:56;86.40;;;23.27;;
52322;SDS011;38263;52.920;6.238;2022-12-11T09:32:22;76.45;;;22.27;;
52322;SDS011;38263;52.920;6.238;2022-12-11T09:34:49;80.55;;;21.95;;
52322;SDS011;38263;52.920;6.238;2022-12-11T09:37:15;89.75;;;24.52;;
52322;SDS011;38263;52.920;6.238;2022-12-11T09:39:41;74.57;;;21.15;;
52322;SDS011;38263;52.920;6.238;2022-12-11T09:42:08;89.50;;;21.70;;
52322;SDS011;38263;52.920;6.238;2022-12-11T09:44:47;80.18;;;23.60;;
52322;SDS011;38263;52.920;6.238;2022-12-11T09:49:44;87.80;;;24.10;;
52322;SDS011;38263;52.920;6.238;2022-12-11T09:54:51;80.35;;;22.23;;
52322;SDS011;38263;52.920;6.238;2022-12-11T10:00:04;80.78;;;22.52;;
52322;SDS011;38263;52.920;6.238;2022-12-11T10:02:42;79.80;;;23.23;;
52322;SDS011;38263;52.920;6.238;2022-12-11T10:07:59;85.40;;;23.17;;
52322;SDS011;38263;52.920;6.238;2022-12-11T10:10:56;75.07;;;21.70;;
52322;SDS011;38263;52.920;6.238;2022-12-11T10:13:52;74.03;;;19.73;;
52322;SDS011;38263;52.920;6.238;2022-12-11T10:16:35;81.03;;;22.10;;
52322;SDS011;38263;52.920;6.238;2022-12-11T10:19:04;84.82;;;23.65;;
52322;SDS011;38263;52.920;6.238;2022-12-11T10:21:35;77.78;;;24.88;;
52322;SDS011;38263;52.920;6.238;2022-12-11T10:24:09;69.07;;;22.20;;
52322;SDS011;38263;52.920;6.238;2022-12-11T10:26:41;82.68;;;22.90;;
52322;SDS011;38263;52.920;6.238;2022-12-11T10:29:14;81.47;;;22.73;;
52322;SDS011;38263;52.920;6.238;2022-12-11T10:31:44;74.40;;;24.00;;
52322;SDS011;38263;52.920;6.238;2022-12-11T10:34:13;80.18;;;24.00;;
52322;SDS011;38263;52.920;6.238;2022-12-11T10:36:47;93.63;;;24.65;;
52322;SDS011;38263;52.920;6.238;2022-12-11T10:39:13;80.10;;;21.58;;
52322;SDS011;38263;52.920;6.238;2022-12-11T10:41:42;82.03;;;24.25;;
52322;SDS011;38263;52.920;6.238;2022-12-11T10:44:16;77.10;;;23.27;;
52322;SDS011;38263;52.920;6.238;2022-12-11T10:46:47;88.82;;;23.70;;
52322;SDS011;38263;52.920;6.238;2022-12-11T10:49:25;83.88;;;25.13;;
52322;SDS011;38263;52.920;6.238;2022-12-11T10:51:55;91.55;;;23.10;;
52322;SDS011;38263;52.920;6.238;2022-12-11T10:56:57;73.57;;;21.73;;
52322;SDS011;38263;52.920;6.238;2022-12-11T11:01:50;69.40;;;22.95;;
52322;SDS011;38263;52.920;6.238;2022-12-11T11:04:21;78.97;;;22.30;;
52322;SDS011;38263;52.920;6.238;2022-12-11T11:07:39;78.72;;;21.65;;
52322;SDS011;38263;52.920;6.238;2022-12-11T11:09:48;75.43;;;22.70;;
52322;SDS011;38263;52.920;6.238;2022-12-11T11:12:18;76.75;;;23.50;;
52322;SDS011;38263;52.920;6.238;2022-12-11T11:14:59;68.95;;;22.60;;
52322;SDS011;38263;52.920;6.238;2022-12-11T11:17:26;79.68;;;23.85;;
52322;SDS011;38263;52.920;6.238;2022-12-11T11:19:52;77.85;;;21.55;;
52322;SDS011;38263;52.920;6.238;2022-12-11T11:22:20;77.15;;;22.13;;
52322;SDS011;38263;52.920;6.238;2022-12-11T11:24:54;74.30;;;21.70;;
52322;SDS011;38263;52.920;6.238;2022-12-11T11:30:09;69.65;;;20.80;;
52322;SDS011;38263;52.920;6.238;2022-12-11T11:32:46;74.97;;;21.55;;
52322;SDS011;38263;52.920;6.238;2022-12-11T11:35:17;78.05;;;23.10;;
52322;SDS011;38263;52.920;6.238;2022-12-11T11:37:44;73.63;;;21.98;;
52322;SDS011;38263;52.920;6.238;2022-12-11T11:40:18;74.82;;;23.92;;
52322;SDS011;38263;52.920;6.238;2022-12-11T11:42:46;71.85;;;22.50;;
52322;SDS011;38263;52.920;6.238;2022-12-11T11:51:26;65.72;;;20.42;;
52322;SDS011;38263;52.920;6.238;2022-12-11T11:53:50;79.75;;;23.20;;
52322;SDS011;38263;52.920;6.238;2022-12-11T11:56:22;65.85;;;21.48;;
52322;SDS011;38263;52.920;6.238;2022-12-11T11:59:02;73.10;;;21.77;;
52322;SDS011;38263;52.920;6.238;2022-12-11T12:01:30;66.85;;;20.35;;
52322;SDS011;38263;52.920;6.238;2022-12-11T12:03:57;72.60;;;21.45;;
52322;SDS011;38263;52.920;6.238;2022-12-11T12:06:26;72.97;;;22.00;;
52322;SDS011;38263;52.920;6.238;2022-12-11T12:09:01;73.00;;;22.65;;
52322;SDS011;38263;52.920;6.238;2022-12-11T12:14:32;71.13;;;21.88;;
52322;SDS011;38263;52.920;6.238;2022-12-11T12:17:12;73.25;;;22.27;;
52322;SDS011;38263;52.920;6.238;2022-12-11T12:20:01;71.78;;;22.10;;
52322;SDS011;38263;52.920;6.238;2022-12-11T12:25:17;73.10;;;21.45;;
52322;SDS011;38263;52.920;6.238;2022-12-11T12:28:14;67.30;;;20.92;;
52322;SDS011;38263;52.920;6.238;2022-12-11T12:33:25;66.22;;;22.10;;
52322;SDS011;38263;52.920;6.238;2022-12-11T12:36:07;67.43;;;21.67;;
52322;SDS011;38263;52.920;6.238;2022-12-11T12:46:34;71.13;;;22.90;;
52322;SDS011;38263;52.920;6.238;2022-12-11T12:49:06;54.40;;;21.15;;
52322;SDS011;38263;52.920;6.238;2022-12-11T12:51:36;60.50;;;21.98;;
52322;SDS011;38263;52.920;6.238;2022-12-11T12:54:02;59.20;;;21.63;;
52322;SDS011;38263;52.920;6.238;2022-12-11T12:56:29;51.05;;;20.30;;
52322;SDS011;38263;52.920;6.238;2022-12-11T12:58:56;57.92;;;20.65;;
52322;SDS011;38263;52.920;6.238;2022-12-11T13:01:23;54.38;;;20.70;;
52322;SDS011;38263;52.920;6.238;2022-12-11T13:03:55;47.58;;;19.55;;
52322;SDS011;38263;52.920;6.238;2022-12-11T13:08:53;50.55;;;20.08;;
52322;SDS011;38263;52.920;6.238;2022-12-11T13:11:20;49.00;;;18.40;;
52322;SDS011;38263;52.920;6.238;2022-12-11T13:13:47;49.55;;;19.00;;
52322;SDS011;38263;52.920;6.238;2022-12-11T13:18:43;44.75;;;19.00;;
52322;SDS011;38263;52.920;6.238;2022-12-11T13:24:09;49.13;;;19.13;;
52322;SDS011;38263;52.920;6.238;2022-12-11T13:26:36;44.55;;;18.38;;
52322;SDS011;38263;52.920;6.238;2022-12-11T13:29:02;44.08;;;18.75;;
52322;SDS011;38263;52.920;6.238;2022-12-11T13:31:33;47.85;;;17.92;;
52322;SDS011;38263;52.920;6.238;2022-12-11T13:34:17;42.97;;;18.27;;
52322;SDS011;38263;52.920;6.238;2022-12-11T13:36:47;46.55;;;19.75;;
52322;SDS011;38263;52.920;6.238;2022-12-11T13:39:17;46.05;;;18.73;;
52322;SDS011;38263;52.920;6.238;2022-12-11T13:41:45;44.85;;;18.98;;
52322;SDS011;38263;52.920;6.238;2022-12-11T13:44:15;45.72;;;17.60;;
52322;SDS011;38263;52.920;6.238;2022-12-11T13:46:43;47.85;;;20.10;;
52322;SDS011;38263;52.920;6.238;2022-12-11T13:49:16;45.35;;;20.38;;
52322;SDS011;38263;52.920;6.238;2022-12-11T13:51:49;49.30;;;19.60;;
52322;SDS011;38263;52.920;6.238;2022-12-11T13:54:17;50.88;;;20.27;;
52322;SDS011;38263;52.920;6.238;2022-12-11T13:56:57;49.17;;;20.38;;
52322;SDS011;38263;52.920;6.238;2022-12-11T13:59:28;48.10;;;19.83;;
52322;SDS011;38263;52.920;6.238;2022-12-11T14:02:00;45.95;;;20.10;;
52322;SDS011;38263;52.920;6.238;2022-12-11T14:04:38;53.15;;;20.38;;
52322;SDS011;38263;52.920;6.238;2022-12-11T14:07:07;54.28;;;21.25;;
52322;SDS011;38263;52.920;6.238;2022-12-11T14:09:36;57.10;;;21.20;;
52322;SDS011;38263;52.920;6.238;2022-12-11T14:12:04;51.22;;;21.13;;
52322;SDS011;38263;52.920;6.238;2022-12-11T14:14:37;50.85;;;20.40;;
52322;SDS011;38263;52.920;6.238;2022-12-11T14:17:08;51.78;;;21.45;;
52322;SDS011;38263;52.920;6.238;2022-12-11T14:19:37;48.25;;;20.73;;
52322;SDS011;38263;52.920;6.238;2022-12-11T14:22:04;54.72;;;21.70;;
52322;SDS011;38263;52.920;6.238;2022-12-11T14:24:31;47.28;;;19.73;;
52322;SDS011;38263;52.920;6.238;2022-12-11T14:26:57;51.33;;;20.75;;
52322;SDS011;38263;52.920;6.238;2022-12-11T14:29:25;61.30;;;26.35;;
52322;SDS011;38263;52.920;6.238;2022-12-11T14:31:54;49.80;;;20.42;;
52322;SDS011;38263;52.920;6.238;2022-12-11T14:34:24;53.00;;;20.90;;
52322;SDS011;38263;52.920;6.238;2022-12-11T14:36:54;48.38;;;20.58;;
52322;SDS011;38263;52.920;6.238;2022-12-11T14:39:31;45.00;;;19.98;;
52322;SDS011;38263;52.920;6.238;2022-12-11T14:42:01;53.53;;;21.45;;
52322;SDS011;38263;52.920;6.238;2022-12-11T14:44:30;49.05;;;18.98;;
52322;SDS011;38263;52.920;6.238;2022-12-11T14:47:04;50.72;;;21.15;;
52322;SDS011;38263;52.920;6.238;2022-12-11T14:49:40;44.00;;;19.88;;
52322;SDS011;38263;52.920;6.238;2022-12-11T14:52:12;40.75;;;18.58;;
52322;SDS011;38263;52.920;6.238;2022-12-11T14:54:43;46.80;;;19.58;;
52322;SDS011;38263;52.920;6.238;2022-12-11T14:57:17;48.08;;;19.52;;
52322;SDS011;38263;52.920;6.238;2022-12-11T14:59:48;44.10;;;17.50;;
52322;SDS011;38263;52.920;6.238;2022-12-11T15:04:57;42.35;;;17.83;;
52322;SDS011;38263;52.920;6.238;2022-12-11T15:10:28;37.35;;;16.98;;
52322;SDS011;38263;52.920;6.238;2022-12-11T15:13:01;41.47;;;18.63;;
52322;SDS011;38263;52.920;6.238;2022-12-11T15:15:29;38.70;;;16.02;;
52322;SDS011;38263;52.920;6.238;2022-12-11T15:17:56;40.85;;;17.52;;
52322;SDS011;38263;52.920;6.238;2022-12-11T15:20:23;43.78;;;18.05;;
52322;SDS011;38263;52.920;6.238;2022-12-11T15:22:53;39.30;;;16.55;;
52322;SDS011;38263;52.920;6.238;2022-12-11T15:25:23;35.97;;;16.90;;
52322;SDS011;38263;52.920;6.238;2022-12-11T15:27:50;36.10;;;15.90;;
52322;SDS011;38263;52.920;6.238;2022-12-11T15:32:45;45.13;;;16.25;;
52322;SDS011;38263;52.920;6.238;2022-12-11T15:35:21;37.47;;;16.63;;